createdAt,value
2018-04-08T00:00:39.106Z,56.50
2018-04-08T00:03:06.608Z,56.60
2018-04-08T00:05:34.111Z,56.90
2018-04-08T00:08:02.364Z,57.10
2018-04-08T00:10:29.868Z,57.10
2018-04-08T00:12:57.345Z,58.30
2018-04-08T00:15:24.855Z,57.10
2018-04-08T00:17:53.149Z,57.10
2018-04-08T00:20:21.398Z,57.30
2018-04-08T00:22:48.926Z,57.30
2018-04-08T00:25:16.410Z,58.60
2018-04-08T00:27:43.911Z,58.80
2018-04-08T00:30:11.398Z,58.90
2018-04-08T00:32:38.913Z,59.40
2018-04-08T00:35:07.158Z,59.50
2018-04-08T00:37:34.647Z,59.50
2018-04-08T00:40:02.138Z,59.70
2018-04-08T00:42:29.628Z,59.40
2018-04-08T00:44:57.141Z,59.00
2018-04-08T00:47:24.623Z,57.90
2018-04-08T00:49:52.111Z,57.30
2018-04-08T00:52:19.595Z,57.40
2018-04-08T00:54:47.866Z,57.50
2018-04-08T00:57:16.120Z,57.80
2018-04-08T00:59:43.626Z,57.70
2018-04-08T01:02:11.107Z,57.70
2018-04-08T01:04:38.578Z,57.90
2018-04-08T01:07:06.084Z,57.90
2018-04-08T01:09:33.560Z,58.00
2018-04-08T01:12:01.055Z,58.90
2018-04-08T01:14:28.540Z,58.50
2018-04-08T01:16:56.803Z,59.00
2018-04-08T01:19:25.092Z,58.70
2018-04-08T01:21:53.359Z,59.30
2018-04-08T01:24:21.619Z,59.90
2018-04-08T01:26:49.115Z,59.80
2018-04-08T01:29:16.614Z,59.60
2018-04-08T01:31:44.104Z,60.00
2018-04-08T01:34:11.615Z,60.50
2018-04-08T01:36:39.129Z,60.20
2018-04-08T01:39:07.390Z,60.70
2018-04-08T01:41:34.883Z,60.60
2018-04-08T01:44:02.402Z,61.00
2018-04-08T01:46:29.886Z,61.10
2018-04-08T01:48:58.163Z,61.00
2018-04-08T01:51:26.414Z,61.00
2018-04-08T01:53:53.893Z,61.00
2018-04-08T01:56:22.176Z,61.20
2018-04-08T01:58:50.426Z,61.10
2018-04-08T02:01:17.929Z,61.10
2018-04-08T02:03:45.444Z,61.20
2018-04-08T02:06:12.931Z,61.60
2018-04-08T02:08:40.419Z,61.20
2018-04-08T02:11:07.920Z,61.60
2018-04-08T02:13:35.403Z,61.30
2018-04-08T02:16:03.660Z,61.40
2018-04-08T02:18:31.940Z,62.30
2018-04-08T02:21:00.211Z,62.20
2018-04-08T02:23:28.497Z,62.80
2018-04-08T02:25:56.756Z,62.00
2018-04-08T02:28:24.252Z,62.00
2018-04-08T02:30:51.762Z,63.10
2018-04-08T02:33:19.283Z,62.20
2018-04-08T02:35:46.780Z,61.90
2018-04-08T02:38:14.284Z,61.50
2018-04-08T02:40:41.765Z,61.90
2018-04-08T02:43:09.298Z,61.50
2018-04-08T02:45:36.806Z,61.70
2018-04-08T02:48:04.336Z,62.40
2018-04-08T02:50:31.838Z,62.00
2018-04-08T02:52:59.348Z,60.10
2018-04-08T02:55:26.870Z,61.90
2018-04-08T02:57:55.118Z,60.80
2018-04-08T03:00:22.626Z,60.80
2018-04-08T03:02:50.120Z,61.00
2018-04-08T03:05:17.622Z,60.80
2018-04-08T03:07:45.128Z,59.90
2018-04-08T03:10:12.679Z,59.60
2018-04-08T03:12:40.196Z,68.90
2018-04-08T03:15:08.439Z,59.30
2018-04-08T03:17:35.926Z,59.20
2018-04-08T03:20:04.200Z,60.20
2018-04-08T03:22:31.723Z,60.00
2018-04-08T03:24:59.236Z,59.90
2018-04-08T03:27:26.753Z,60.10
2018-04-08T03:29:54.254Z,60.30
2018-04-08T03:32:21.754Z,60.80
2018-04-08T03:34:49.291Z,61.50
2018-04-08T03:37:16.809Z,61.60
2018-04-08T03:39:45.068Z,61.20
2018-04-08T03:42:12.568Z,61.20
2018-04-08T03:44:40.063Z,61.50
2018-04-08T03:47:07.560Z,62.10
2018-04-08T03:49:35.826Z,60.90
2018-04-08T03:52:04.080Z,62.20
2018-04-08T03:54:31.560Z,61.50
2018-04-08T03:56:59.100Z,61.20
2018-04-08T03:59:26.586Z,61.20
2018-04-08T04:01:54.876Z,61.40
2018-04-08T04:04:23.159Z,62.50
2018-04-08T04:06:51.391Z,61.30
2018-04-08T04:09:18.903Z,61.30
2018-04-08T04:11:46.429Z,61.30
2018-04-08T04:14:14.705Z,60.70
2018-04-08T04:16:42.962Z,60.70
2018-04-08T04:19:22.434Z,60.60
2018-04-08T04:22:02.464Z,61.30
2018-04-08T04:24:41.799Z,61.30
2018-04-08T04:27:09.316Z,61.60
2018-04-08T04:29:36.897Z,62.00
2018-04-08T04:32:04.435Z,62.30
2018-04-08T04:34:31.972Z,61.60
2018-04-08T04:36:59.566Z,61.80
2018-04-08T04:39:27.091Z,62.20
2018-04-08T04:41:54.622Z,61.70
2018-04-08T04:44:22.900Z,61.50
2018-04-08T04:46:51.197Z,62.00
2018-04-08T04:49:18.743Z,61.90
2018-04-08T04:51:47.034Z,64.10
2018-04-08T04:54:14.668Z,64.10
2018-04-08T04:56:42.264Z,64.10
2018-04-08T04:59:09.767Z,61.80
2018-04-08T05:01:37.331Z,61.40
2018-04-08T05:04:04.876Z,61.40
2018-04-08T05:06:32.425Z,60.60
2018-04-08T05:09:00.015Z,61.20
2018-04-08T05:11:27.526Z,62.00
2018-04-08T05:13:55.060Z,62.40
2018-04-08T05:16:22.571Z,64.70
2018-04-08T05:18:50.085Z,62.50
2018-04-08T05:21:17.620Z,61.30
2018-04-08T05:23:45.891Z,60.60
2018-04-08T05:26:13.425Z,60.50
2018-04-08T05:28:40.977Z,61.10
2018-04-08T05:31:08.535Z,61.10
2018-04-08T05:33:36.089Z,61.20
2018-04-08T05:36:03.605Z,61.30
2018-04-08T05:38:31.174Z,60.30
2018-04-08T05:40:58.766Z,60.60
2018-04-08T05:43:26.261Z,60.50
2018-04-08T05:45:53.794Z,60.80
2018-04-08T05:48:21.292Z,61.70
2018-04-08T05:50:49.606Z,62.10
2018-04-08T05:53:17.118Z,62.00
2018-04-08T05:55:45.420Z,63.20
2018-04-08T05:58:12.943Z,63.20
2018-04-08T06:00:40.509Z,63.40
2018-04-08T06:03:08.049Z,62.80
2018-04-08T06:05:35.563Z,62.70
2018-04-08T06:08:03.124Z,62.70
2018-04-08T06:10:30.639Z,62.10
2018-04-08T06:12:58.143Z,61.60
2018-04-08T06:15:25.662Z,61.70
2018-04-08T06:17:53.187Z,61.80
2018-04-08T06:20:20.742Z,61.70
2018-04-08T06:22:48.276Z,62.10
2018-04-08T06:25:15.784Z,61.90
2018-04-08T06:27:43.284Z,62.00
2018-04-08T06:30:10.832Z,61.30
2018-04-08T06:32:39.110Z,60.00
2018-04-08T06:35:07.365Z,59.80
2018-04-08T06:37:34.875Z,59.80
2018-04-08T06:40:02.414Z,59.00
2018-04-08T06:42:29.950Z,58.70
2018-04-08T06:44:58.239Z,58.10
2018-04-08T06:47:26.497Z,57.80
2018-04-08T06:49:54.009Z,57.70
2018-04-08T06:52:21.542Z,56.60
2018-04-08T06:54:49.058Z,56.70
2018-04-08T06:57:16.580Z,56.10
2018-04-08T06:59:44.090Z,55.80
2018-04-08T07:02:12.349Z,54.40
2018-04-08T07:04:39.856Z,54.40
2018-04-08T07:07:07.346Z,54.30
2018-04-08T07:09:34.863Z,54.00
2018-04-08T07:12:02.387Z,53.50
2018-04-08T07:14:29.871Z,53.30
2018-04-08T07:16:58.261Z,51.20
2018-04-08T07:19:25.739Z,51.10
2018-04-08T07:21:53.256Z,50.90
2018-04-08T07:24:21.513Z,49.30
2018-04-08T07:26:48.997Z,49.30
2018-04-08T07:29:17.270Z,48.20
2018-04-08T07:31:45.522Z,47.00
2018-04-08T07:34:13.025Z,46.90
2018-04-08T07:36:40.528Z,46.30
2018-04-08T07:39:08.025Z,44.00
2018-04-08T07:41:36.283Z,41.30
2018-04-08T07:44:03.772Z,41.20
2018-04-08T07:46:31.274Z,40.80
2018-04-08T07:48:58.772Z,38.50
2018-04-08T07:51:27.032Z,35.20
2018-04-08T07:53:54.548Z,35.10
2018-04-08T07:56:22.034Z,34.90
2018-04-08T07:58:49.539Z,34.20
2018-04-08T08:01:17.028Z,32.80
2018-04-08T08:03:44.538Z,33.00
2018-04-08T08:06:12.817Z,32.40
2018-04-08T08:08:41.062Z,32.30
2018-04-08T08:11:08.609Z,32.20
2018-04-08T08:13:36.066Z,31.00
2018-04-08T08:16:03.564Z,29.10
2018-04-08T08:18:31.840Z,28.00
2018-04-08T08:21:00.097Z,28.80
2018-04-08T08:23:27.604Z,28.80
2018-04-08T08:25:55.096Z,28.70
2018-04-08T08:28:22.574Z,28.20
2018-04-08T08:30:50.088Z,28.00
2018-04-08T08:33:17.574Z,28.20
2018-04-08T08:35:45.084Z,27.30
2018-04-08T08:38:12.603Z,26.70
2018-04-08T08:40:40.111Z,26.90
2018-04-08T08:43:07.599Z,26.20
2018-04-08T08:45:35.084Z,25.10
2018-04-08T08:48:02.580Z,24.90
2018-04-08T08:50:30.075Z,26.30
2018-04-08T08:52:57.572Z,24.80
2018-04-08T08:55:25.835Z,24.70
2018-04-08T08:57:54.113Z,24.10
2018-04-08T09:00:22.406Z,24.40
2018-04-08T09:02:50.730Z,22.10
2018-04-08T09:05:18.224Z,22.10
2018-04-08T09:07:46.500Z,23.10
2018-04-08T09:10:14.764Z,21.70
2018-04-08T09:12:42.265Z,21.70
2018-04-08T09:15:09.770Z,21.30
2018-04-08T09:17:37.259Z,21.60
2018-04-08T09:20:05.513Z,19.30
2018-04-08T09:22:34.506Z,19.20
2018-04-08T09:28:05.561Z,19.00
2018-04-08T09:30:33.058Z,18.50
2018-04-08T09:33:00.562Z,20.20
2018-04-08T09:35:28.058Z,19.30
2018-04-08T09:37:56.312Z,21.20
2018-04-08T09:40:23.813Z,21.10
2018-04-08T09:42:51.323Z,20.40
2018-04-08T09:45:18.816Z,20.80
2018-04-08T09:47:46.317Z,21.60
2018-04-08T09:50:13.818Z,21.40
2018-04-08T09:52:41.304Z,22.00
2018-04-08T09:55:08.800Z,20.70
2018-04-08T09:57:36.775Z,19.30
2018-04-08T10:00:04.258Z,20.10
2018-04-08T10:02:39.244Z,20.40
2018-04-08T10:05:06.728Z,20.40
2018-04-08T10:07:34.234Z,18.80
2018-04-08T10:10:01.742Z,17.60
2018-04-08T10:12:29.242Z,20.20
2018-04-08T10:14:57.508Z,20.80
2018-04-08T10:17:25.796Z,18.80
2018-04-08T10:19:54.038Z,18.70
2018-04-08T10:22:21.520Z,18.70
2018-04-08T10:24:49.813Z,17.40
2018-04-08T10:27:17.320Z,17.40
2018-04-08T10:29:44.849Z,19.30
2018-04-08T10:32:12.356Z,17.90
2018-04-08T10:34:39.861Z,18.80
2018-04-08T10:37:07.383Z,20.70
2018-04-08T10:39:35.639Z,18.80
2018-04-08T10:42:03.165Z,18.90
2018-04-08T10:44:30.731Z,18.90
2018-04-08T10:46:58.251Z,19.10
2018-04-08T10:49:26.528Z,21.50
2018-04-08T10:51:54.792Z,20.70
2018-04-08T10:54:23.072Z,19.90
2018-04-08T10:56:51.344Z,18.50
2018-04-08T10:59:19.594Z,21.00
2018-04-08T11:01:47.094Z,21.10
2018-04-08T11:04:14.574Z,20.30
2018-04-08T11:06:42.091Z,20.10
2018-04-08T11:09:10.381Z,17.70
2018-04-08T11:11:37.867Z,17.70
2018-04-08T11:14:05.365Z,17.80
2018-04-08T11:16:32.868Z,18.30
2018-04-08T11:19:00.392Z,19.50
2018-04-08T11:21:27.883Z,18.00
2018-04-08T11:23:55.366Z,19.20
2018-04-08T11:26:22.867Z,18.30
2018-04-08T11:28:50.375Z,17.50
2018-04-08T11:31:17.926Z,18.90
2018-04-08T11:33:45.408Z,18.00
2018-04-08T11:36:12.899Z,18.20
2018-04-08T11:38:40.405Z,19.50
2018-04-08T11:41:07.895Z,20.70
2018-04-08T11:43:35.400Z,19.00
2018-04-08T11:46:02.911Z,16.40
2018-04-08T11:48:30.390Z,18.00
2018-04-08T11:50:57.889Z,17.50
2018-04-08T11:53:25.402Z,17.40
2018-04-08T11:55:52.905Z,17.50
2018-04-08T11:58:20.413Z,16.70
2018-04-08T12:00:49.449Z,17.20
2018-04-08T12:03:16.930Z,16.70
2018-04-08T12:05:44.443Z,18.50
2018-04-08T12:08:12.716Z,16.30
2018-04-08T12:10:40.978Z,16.00
2018-04-08T12:13:08.580Z,16.00
2018-04-08T12:15:36.089Z,17.30
2018-04-08T12:18:03.755Z,16.80
2018-04-08T12:20:31.280Z,17.80
2018-04-08T12:22:58.779Z,16.30
2018-04-08T12:25:26.564Z,16.40
2018-04-08T12:27:54.084Z,15.50
2018-04-08T12:30:21.578Z,16.80
2018-04-08T12:32:49.959Z,17.20
2018-04-08T12:35:17.446Z,17.10
2018-04-08T12:37:44.951Z,17.10
2018-04-08T12:40:12.472Z,18.40
2018-04-08T12:42:39.960Z,17.40
2018-04-08T12:45:07.451Z,17.50
2018-04-08T12:47:35.732Z,17.10
2018-04-08T12:50:03.444Z,17.00
2018-04-08T12:52:30.944Z,16.20
2018-04-08T12:54:59.306Z,16.80
2018-04-08T12:57:27.569Z,16.60
2018-04-08T12:59:55.057Z,16.60
2018-04-08T13:02:23.416Z,16.90
2018-04-08T13:04:50.908Z,16.80
2018-04-08T13:07:18.404Z,18.50
2018-04-08T13:09:45.906Z,16.30
2018-04-08T13:12:14.157Z,16.90
2018-04-08T13:14:41.640Z,16.90
2018-04-08T13:17:09.913Z,15.90
2018-04-08T13:19:38.160Z,15.20
2018-04-08T13:22:05.871Z,15.20
2018-04-08T13:24:33.359Z,16.40
2018-04-08T13:27:00.854Z,16.60
2018-04-08T13:29:28.362Z,15.20
2018-04-08T13:31:55.895Z,15.00
2018-04-08T13:34:23.422Z,16.20
2018-04-08T13:36:50.920Z,15.40
2018-04-08T13:39:18.478Z,15.40
2018-04-08T13:41:45.974Z,15.30
2018-04-08T13:44:13.464Z,14.40
2018-04-08T13:46:40.975Z,15.50
2018-04-08T13:49:08.462Z,16.30
2018-04-08T13:51:36.025Z,15.40
2018-04-08T13:54:03.703Z,15.30
2018-04-08T13:56:31.964Z,15.60
2018-04-08T13:58:59.512Z,15.00
2018-04-08T14:01:27.087Z,15.50
2018-04-08T14:03:54.565Z,15.50
2018-04-08T14:06:22.926Z,16.60
2018-04-08T14:08:50.428Z,16.70
2018-04-08T14:11:17.948Z,15.80
2018-04-08T14:13:45.448Z,15.60
2018-04-08T14:16:12.949Z,16.00
2018-04-08T14:18:40.470Z,15.50
2018-04-08T14:21:07.988Z,15.20
2018-04-08T14:23:36.276Z,14.90
2018-04-08T14:26:04.576Z,13.50
2018-04-08T14:28:32.076Z,13.50
2018-04-08T14:30:59.778Z,14.60
2018-04-08T14:33:27.294Z,14.70
2018-04-08T14:35:54.819Z,14.80
2018-04-08T14:38:22.311Z,13.30
2018-04-08T14:40:50.600Z,14.40
2018-04-08T14:43:18.104Z,14.00
2018-04-08T14:45:45.786Z,15.00
2018-04-08T14:48:13.498Z,15.20
2018-04-08T14:50:41.946Z,18.00
2018-04-08T14:53:09.448Z,18.00
2018-04-08T14:55:37.911Z,18.40
2018-04-08T14:58:06.165Z,18.40
2018-04-08T15:00:33.871Z,18.40
2018-04-08T15:03:01.384Z,15.60
2018-04-08T15:05:28.880Z,14.10
2018-04-08T15:07:57.170Z,14.70
2018-04-08T15:10:24.671Z,14.60
2018-04-08T15:12:52.191Z,16.00
2018-04-08T15:15:19.681Z,15.90
2018-04-08T15:17:47.184Z,14.20
2018-04-08T15:20:15.459Z,15.60
2018-04-08T15:22:43.711Z,15.60
2018-04-08T15:25:11.227Z,15.70
2018-04-08T15:27:38.717Z,15.10
2018-04-08T15:30:06.216Z,15.30
2018-04-08T15:32:34.496Z,15.60
2018-04-08T15:35:02.768Z,15.20
2018-04-08T15:37:31.048Z,15.40
2018-04-08T15:39:58.557Z,15.30
2018-04-08T15:42:26.085Z,15.30
2018-04-08T15:44:54.336Z,16.70
2018-04-08T15:47:22.596Z,18.90
2018-04-08T15:49:50.122Z,18.90
2018-04-08T15:52:17.638Z,21.90
2018-04-08T15:54:45.132Z,22.10
2018-04-08T15:57:12.647Z,21.60
2018-04-08T15:59:40.923Z,20.70
2018-04-08T16:02:09.223Z,20.30
2018-04-08T16:04:36.719Z,20.20
2018-04-08T16:07:04.217Z,21.00
2018-04-08T16:09:31.968Z,22.20
2018-04-08T16:11:59.538Z,23.30
2018-04-08T16:14:27.818Z,22.50
2018-04-08T16:16:56.076Z,22.40
2018-04-08T16:19:24.341Z,22.50
2018-04-08T16:21:51.849Z,22.50
2018-04-08T16:24:19.347Z,22.60
2018-04-08T16:26:46.868Z,22.90
2018-04-08T16:29:14.365Z,23.00
2018-04-08T16:31:41.851Z,23.30
2018-04-08T16:34:10.118Z,25.30
2018-04-08T16:36:38.395Z,26.50
2018-04-08T16:39:05.888Z,26.00
2018-04-08T16:41:33.381Z,27.50
2018-04-08T16:44:00.904Z,28.10
2018-04-08T16:46:28.466Z,29.30
2018-04-08T16:49:04.995Z,28.90
2018-04-08T16:51:34.136Z,24.70
2018-04-08T16:54:01.758Z,28.80
2018-04-08T16:56:30.029Z,29.40
2018-04-08T16:58:57.633Z,29.40
2018-04-08T17:01:25.121Z,30.60
2018-04-08T17:03:52.696Z,27.70
2018-04-08T17:06:20.174Z,23.90
2018-04-08T17:08:48.426Z,24.60
2018-04-08T17:11:15.948Z,24.60
2018-04-08T17:13:43.438Z,24.40
2018-04-08T17:16:10.959Z,24.10
2018-04-08T17:18:38.462Z,23.80
2018-04-08T17:21:05.960Z,24.90
2018-04-08T17:23:33.611Z,25.00
2018-04-08T17:26:01.895Z,29.90
2018-04-08T17:28:29.419Z,29.90
2018-04-08T17:30:57.062Z,32.40
2018-04-08T17:33:24.706Z,33.60
2018-04-08T17:35:52.210Z,33.30
2018-04-08T17:38:20.513Z,29.30
2018-04-08T17:40:48.037Z,29.20
2018-04-08T17:43:15.684Z,32.30
2018-04-08T17:45:43.184Z,34.10
2018-04-08T17:48:12.056Z,36.30
2018-04-08T17:50:40.338Z,36.10
2018-04-08T17:53:08.661Z,36.40
2018-04-08T17:55:36.161Z,36.30
2018-04-08T17:58:03.642Z,36.20
2018-04-08T18:00:31.920Z,38.10
2018-04-08T18:03:00.188Z,38.50
2018-04-08T18:05:28.726Z,39.00
2018-04-08T18:07:56.247Z,38.90
2018-04-08T18:10:23.748Z,39.30
2018-04-08T18:12:51.256Z,38.90
2018-04-08T18:15:18.741Z,39.30
2018-04-08T18:17:46.291Z,39.10
2018-04-08T18:20:13.959Z,39.70
2018-04-08T18:22:41.453Z,39.60
2018-04-08T18:25:08.972Z,40.30
2018-04-08T18:27:36.467Z,40.50
2018-04-08T18:30:04.197Z,41.30
2018-04-08T18:32:31.687Z,41.80
2018-04-08T18:34:59.170Z,41.30
2018-04-08T18:37:27.482Z,40.90
2018-04-08T18:39:54.954Z,40.90
2018-04-08T18:42:22.469Z,40.90
2018-04-08T18:44:50.748Z,41.80
2018-04-08T18:47:19.003Z,40.40
2018-04-08T18:49:46.517Z,40.30
2018-04-08T18:52:14.015Z,40.90
2018-04-08T18:54:41.519Z,41.70
2018-04-08T18:57:09.034Z,42.60
2018-04-08T18:59:36.520Z,43.10
2018-04-08T19:02:04.783Z,43.30
2018-04-08T19:04:33.028Z,44.20
2018-04-08T19:07:00.648Z,44.10
2018-04-08T19:09:28.148Z,44.30
2018-04-08T19:11:55.670Z,43.50
2018-04-08T19:14:23.278Z,43.90
2018-04-08T19:16:50.772Z,36.10
2018-04-08T19:19:18.269Z,38.50
2018-04-08T19:21:45.940Z,35.00
2018-04-08T19:24:13.644Z,30.70
2018-04-08T19:26:41.913Z,27.50
2018-04-08T19:29:10.169Z,27.30
2018-04-08T19:31:37.680Z,27.30
2018-04-08T19:34:05.224Z,26.90
2018-04-08T19:36:32.735Z,26.80
2018-04-08T19:39:00.225Z,27.00
2018-04-08T19:41:28.473Z,27.70
2018-04-08T19:43:56.092Z,27.70
2018-04-08T19:46:23.567Z,28.10
2018-04-08T19:48:51.088Z,28.40
2018-04-08T19:51:18.596Z,28.20
2018-04-08T19:53:46.230Z,28.40
2018-04-08T19:56:13.737Z,28.00
2018-04-08T19:58:41.242Z,27.90
2018-04-08T20:01:08.774Z,28.20
2018-04-08T20:03:37.033Z,27.60
2018-04-08T20:06:05.305Z,27.40
2018-04-08T20:08:32.809Z,27.40
2018-04-08T20:11:00.286Z,27.00
2018-04-08T20:13:27.784Z,27.10
2018-04-08T20:15:56.037Z,27.30
2018-04-08T20:18:23.514Z,26.90
2018-04-08T20:20:51.221Z,27.00
2018-04-08T20:23:18.704Z,27.10
2018-04-08T20:25:46.985Z,27.00
2018-04-08T20:28:14.470Z,27.00
2018-04-08T20:30:41.964Z,27.20
2018-04-08T20:33:09.466Z,26.80
2018-04-08T20:35:37.332Z,27.10
2018-04-08T20:38:05.061Z,27.50
2018-04-08T20:40:32.621Z,27.10
2018-04-08T20:43:00.114Z,27.10
2018-04-08T20:45:27.628Z,27.00
2018-04-08T20:47:55.103Z,26.80
2018-04-08T20:50:22.606Z,26.90
2018-04-08T20:52:50.094Z,26.80
2018-04-08T20:55:17.589Z,26.90
2018-04-08T20:57:45.083Z,26.80
2018-04-08T21:00:13.168Z,26.70
2018-04-08T21:02:41.567Z,26.80
2018-04-08T21:05:09.076Z,26.80
2018-04-08T21:07:36.550Z,27.00
2018-04-08T21:10:04.838Z,27.50
2018-04-08T21:12:33.119Z,27.00
2018-04-08T21:15:01.407Z,27.10
2018-04-08T21:17:28.892Z,27.10
2018-04-08T21:19:56.403Z,27.50
2018-04-08T21:22:24.713Z,27.40
2018-04-08T21:24:52.193Z,27.40
2018-04-08T21:27:19.712Z,27.60
2018-04-08T21:29:47.974Z,27.90
2018-04-08T21:32:16.218Z,27.60
2018-04-08T21:34:43.711Z,27.60
2018-04-08T21:37:11.962Z,27.60
2018-04-08T21:39:39.481Z,27.60
2018-04-08T21:42:06.965Z,27.70
2018-04-08T21:44:34.453Z,27.30
2018-04-08T21:47:02.720Z,27.10
2018-04-08T21:49:30.202Z,27.00
2018-04-08T21:51:57.720Z,27.80
2018-04-08T21:54:25.241Z,26.80
2018-04-08T21:56:52.716Z,27.20
2018-04-08T21:59:20.220Z,26.60
2018-04-08T22:01:48.476Z,27.30
2018-04-08T22:04:16.001Z,27.30
2018-04-08T22:06:43.550Z,27.80
2018-04-08T22:09:11.037Z,28.20
2018-04-08T22:11:38.551Z,28.60
2018-04-08T22:14:06.047Z,30.10
2018-04-08T22:16:33.581Z,30.30
2018-04-08T22:19:01.087Z,30.40
2018-04-08T22:21:28.588Z,29.40
2018-04-08T22:23:56.082Z,29.90
2018-04-08T22:26:23.580Z,30.40
2018-04-08T22:28:51.852Z,32.00
2018-04-08T22:31:20.092Z,30.70
2018-04-08T22:33:47.585Z,30.70
2018-04-08T22:36:15.856Z,31.20
2018-04-08T22:38:44.100Z,30.00
2018-04-08T22:41:11.610Z,29.90
2018-04-08T22:43:39.111Z,29.50
2018-04-08T22:46:06.608Z,29.40
2018-04-08T22:48:34.875Z,29.30
2018-04-08T22:51:02.354Z,29.00
2018-04-08T22:53:30.635Z,29.00
2018-04-08T22:55:58.882Z,28.80
2018-04-08T22:58:26.391Z,28.80
2018-04-08T23:00:53.886Z,28.80
2018-04-08T23:03:21.410Z,28.90
2018-04-08T23:05:48.932Z,28.70
2018-04-08T23:08:17.182Z,28.70
2018-04-08T23:10:44.667Z,28.70
2018-04-08T23:13:12.953Z,28.80
2018-04-08T23:15:40.443Z,28.80
2018-04-08T23:18:07.961Z,28.90
2018-04-08T23:20:36.220Z,29.40
2018-04-08T23:23:03.726Z,29.40
2018-04-08T23:25:31.217Z,29.90
2018-04-08T23:27:58.712Z,30.20
2018-04-08T23:30:29.900Z,33.30
2018-04-08T23:32:57.390Z,33.20
2018-04-08T23:35:24.867Z,34.40
2018-04-08T23:37:53.160Z,35.80
2018-04-08T23:40:21.399Z,33.60
2018-04-08T23:42:48.908Z,33.50
2018-04-08T23:45:16.404Z,32.50
2018-04-08T23:47:43.914Z,38.40
2018-04-08T23:50:11.412Z,39.40
2018-04-08T23:52:38.898Z,36.00
2018-04-08T23:55:06.420Z,38.10
2018-04-08T23:57:33.921Z,37.70
